Time;durP1;ratioP1;P1;durP2;ratioP2;P2;SDS_P1;SDS_P2;PMS_P1;PMS_P2;Temp;Humidity;BMP_temperature;BMP_pressure;BME280_temperature;BME280_humidity;BME280_pressure;Samples;Min_cycle;Max_cycle;Signal;HPM_P1;HPM_P2
2022/01/12 00:01:05;;;;;;;24.02;11.05;;;;;;;-2.39;58.22;101484.37;4417060;32;33878;-84
2022/01/12 00:03:33;;;;;;;23.73;10.93;;;;;;;-2.17;57.47;101475.66;4419029;32;33778;-84
2022/01/12 00:06:02;;;;;;;20.15;9.35;;;;;;;-1.81;56.80;101484.66;4419040;32;33458;-85
2022/01/12 00:08:31;;;;;;;24.08;10.18;;;;;;;-1.95;56.98;101477.25;4417839;32;33058;-85
2022/01/12 00:11:01;;;;;;;21.37;10.38;;;;;;;-1.71;56.31;101480.69;4406339;32;34210;-85
2022/01/12 00:13:29;;;;;;;20.75;9.40;;;;;;;-1.69;55.91;101473.84;4418912;32;33759;-84
2022/01/12 00:15:57;;;;;;;25.58;12.02;;;;;;;-1.57;55.53;101483.69;4406358;32;33417;-85
2022/01/12 00:18:26;;;;;;;23.27;10.35;;;;;;;-1.59;55.63;101475.00;4419034;32;33503;-85
2022/01/12 00:20:54;;;;;;;18.87;10.13;;;;;;;-1.60;55.11;101468.09;4406114;32;33725;-84
2022/01/12 00:23:22;;;;;;;20.40;9.13;;;;;;;-1.50;54.82;101475.31;4407420;32;33531;-85
2022/01/12 00:34:00;;;;;;;20.52;9.10;;;;;;;-1.68;54.95;101491.13;4416289;32;34615;-84
2022/01/12 00:36:29;;;;;;;24.05;9.85;;;;;;;-1.71;54.94;101490.13;4418968;32;34521;-84
2022/01/12 00:38:58;;;;;;;21.67;8.23;;;;;;;-1.67;55.07;101492.00;4411451;32;32612;-86
2022/01/12 00:41:26;;;;;;;22.50;9.80;;;;;;;-1.88;55.31;101493.06;4419630;32;33296;-85
2022/01/12 00:43:59;;;;;;;21.48;8.73;;;;;;;-1.81;55.35;101499.31;4418852;32;33665;-84
2022/01/12 00:46:29;;;;;;;30.98;9.23;;;;;;;-2.04;55.29;101506.31;4407373;32;34356;-84
2022/01/12 00:48:58;;;;;;;16.85;8.25;;;;;;;-2.12;56.12;101508.63;4418507;32;33636;-83
2022/01/12 00:51:28;;;;;;;14.38;7.15;;;;;;;-1.92;55.13;101505.84;4418837;32;33066;-84
2022/01/12 00:53:56;;;;;;;19.33;8.02;;;;;;;-1.95;55.15;101511.78;4418477;32;34461;-84
2022/01/12 00:56:24;;;;;;;16.90;7.85;;;;;;;-1.93;55.01;101510.16;4418602;32;33735;-83
2022/01/12 00:58:52;;;;;;;16.48;7.37;;;;;;;-1.82;54.68;101508.78;4405870;32;31968;-83
2022/01/12 01:01:21;;;;;;;16.30;7.68;;;;;;;-1.95;55.17;101509.19;4406192;32;33525;-83
2022/01/12 01:03:49;;;;;;;15.48;5.57;;;;;;;-1.75;54.55;101516.78;4416804;32;33881;-83
2022/01/12 01:06:17;;;;;;;16.12;6.62;;;;;;;-1.84;54.42;101507.87;4406142;32;33244;-83
2022/01/12 01:08:50;;;;;;;16.10;8.88;;;;;;;-2.02;54.84;101509.84;4407383;32;34165;-84
2022/01/12 01:11:19;;;;;;;15.30;6.95;;;;;;;-2.08;55.42;101502.75;4417893;32;33555;-85
2022/01/12 01:14:01;;;;;;;16.62;7.78;;;;;;;-1.64;54.21;101510.25;4418623;32;33476;-85
2022/01/12 01:27:31;;;;;;;11.75;6.18;;;;;;;-1.90;54.70;101502.50;4416332;32;34808;-85
2022/01/12 01:29:59;;;;;;;13.70;5.70;;;;;;;-1.86;54.14;101512.09;4418683;32;32974;-85
2022/01/12 01:32:27;;;;;;;13.70;5.53;;;;;;;-1.84;54.11;101509.59;4405778;32;35234;-86
2022/01/12 01:34:56;;;;;;;11.90;5.60;;;;;;;-2.17;55.05;101511.87;4418501;32;33554;-84
2022/01/12 01:37:24;;;;;;;15.82;6.32;;;;;;;-1.89;54.35;101512.03;4406140;32;34459;-83
2022/01/12 01:39:51;;;;;;;12.48;6.30;;;;;;;-2.22;55.36;101510.84;4404729;32;33539;-83
2022/01/12 01:42:40;;;;;;;13.57;5.25;;;;;;;-2.10;54.80;101514.72;4405596;32;34699;-84
2022/01/12 01:53:31;;;;;;;10.35;4.85;;;;;;;-2.07;54.53;101529.50;4416858;32;33141;-85
2022/01/12 01:56:00;;;;;;;12.85;6.05;;;;;;;-2.10;54.30;101529.38;4390766;32;34782;-85
2022/01/12 01:58:29;;;;;;;13.55;5.37;;;;;;;-2.11;54.39;101535.37;4414676;32;33992;-85
2022/01/12 02:00:58;;;;;;;9.93;5.68;;;;;;;-2.26;55.09;101540.91;4416801;32;34111;-84
2022/01/12 02:03:28;;;;;;;13.40;6.22;;;;;;;-2.40;55.83;101542.97;4405775;32;34286;-83
2022/01/12 02:05:59;;;;;;;14.32;7.05;;;;;;;-2.29;55.74;101537.31;4410565;32;33045;-83
2022/01/12 02:08:27;;;;;;;13.95;6.03;;;;;;;-2.34;55.68;101534.56;4405521;32;32849;-83
2022/01/12 02:10:56;;;;;;;16.83;6.75;;;;;;;-2.24;55.02;101539.25;4405586;32;32782;-84
2022/01/12 02:13:25;;;;;;;14.32;6.10;;;;;;;-2.18;54.80;101541.19;4394331;32;32814;-84
2022/01/12 02:15:58;;;;;;;11.60;5.22;;;;;;;-2.21;54.62;101538.47;4407102;32;34511;-84
2022/01/12 02:35:36;;;;;;;15.48;5.37;;;;;;;-2.30;54.77;101543.31;4403986;32;34397;-84
2022/01/12 02:40:55;;;;;;;17.77;6.40;;;;;;;-2.55;55.19;101537.25;4386035;32;33614;-84
2022/01/12 02:43:39;;;;;;;10.02;5.60;;;;;;;-2.71;55.22;101540.94;4406811;32;33589;-83
2022/01/12 02:54:27;;;;;;;15.13;7.03;;;;;;;-2.60;55.12;101537.09;4380894;32;32251;-84
2022/01/12 02:56:56;;;;;;;15.15;6.75;;;;;;;-2.58;55.45;101539.72;4391007;32;34961;-84
2022/01/12 02:59:24;;;;;;;14.65;7.25;;;;;;;-2.88;56.70;101553.25;4385059;32;33323;-84
2022/01/12 03:04:27;;;;;;;13.10;6.03;;;;;;;-2.88;56.53;101553.25;4390657;32;32397;-84
2022/01/12 03:07:04;;;;;;;20.48;7.57;;;;;;;-2.61;55.74;101553.44;4390044;32;33749;-84
2022/01/12 03:09:32;;;;;;;16.87;6.78;;;;;;;-2.73;55.82;101552.94;4389967;32;34812;-85
2022/01/12 03:12:00;;;;;;;14.43;7.03;;;;;;;-2.73;55.65;101552.94;4390957;32;34183;-84
2022/01/12 03:14:28;;;;;;;15.93;7.43;;;;;;;-2.87;55.83;101557.59;4385127;32;32155;-84
2022/01/12 03:16:56;;;;;;;16.50;7.00;;;;;;;-2.80;56.65;101560.41;4390833;32;33800;-84
2022/01/12 03:19:25;;;;;;;14.87;6.72;;;;;;;-2.88;57.28;101563.59;4378845;32;35150;-84
2022/01/12 03:21:52;;;;;;;17.83;8.13;;;;;;;-2.83;57.30;101554.31;4390661;32;33330;-84
2022/01/12 03:24:20;;;;;;;22.87;8.27;;;;;;;-2.92;57.78;101553.94;4391087;32;33353;-84
2022/01/12 03:26:48;;;;;;;14.48;8.30;;;;;;;-2.83;56.99;101564.66;4390923;32;32336;-82
2022/01/12 03:29:17;;;;;;;17.75;7.75;;;;;;;-2.83;56.63;101562.06;4378188;32;33925;-83
2022/01/12 03:31:44;;;;;;;17.50;7.85;;;;;;;-2.63;56.10;101565.41;4390846;32;32792;-83
2022/01/12 03:34:29;;;;;;;11.30;6.60;;;;;;;-2.69;56.46;101569.47;4384524;32;32511;-83
2022/01/12 04:09:47;;;;;;;18.80;8.77;;;;;;;-3.07;58.77;101573.16;4415491;32;34875;-83
2022/01/12 04:12:16;;;;;;;19.58;7.55;;;;;;;-3.26;59.83;101571.53;4418310;32;33874;-83
2022/01/12 04:14:44;;;;;;;23.60;8.40;;;;;;;-2.92;59.36;101571.16;4418787;32;33017;-82
2022/01/12 04:17:12;;;;;;;20.88;8.95;;;;;;;-2.80;58.93;101565.56;4418863;32;33607;-82
2022/01/12 04:19:40;;;;;;;21.37;8.70;;;;;;;-2.81;58.72;101563.81;4415551;32;33937;-82
2022/01/12 04:24:56;;;;;;;15.13;7.00;;;;;;;-2.70;58.52;101567.72;4414432;32;33528;-83
2022/01/12 04:27:24;;;;;;;18.85;8.70;;;;;;;-2.62;57.83;101561.09;4405787;32;33587;-82
2022/01/12 04:29:52;;;;;;;19.95;8.35;;;;;;;-2.79;58.69;101569.94;4393660;32;33061;-83
2022/01/12 04:32:21;;;;;;;17.02;7.53;;;;;;;-2.58;57.93;101569.03;4418941;32;32382;-83
2022/01/12 04:34:49;;;;;;;17.73;8.15;;;;;;;-2.58;58.03;101565.56;4405228;32;32694;-83
2022/01/12 04:37:17;;;;;;;14.73;7.07;;;;;;;-2.94;58.27;101567.66;4405906;32;32823;-83
2022/01/12 04:39:45;;;;;;;17.95;8.07;;;;;;;-2.77;57.89;101571.75;4405778;32;32108;-83
2022/01/12 04:42:13;;;;;;;14.65;6.40;;;;;;;-2.57;56.52;101581.12;4405895;32;34534;-83
2022/01/12 04:44:45;;;;;;;16.25;8.20;;;;;;;-2.73;56.84;101570.16;4407364;32;34117;-84
2022/01/12 04:47:29;;;;;;;;;;;;;;;-2.90;57.25;101572.09;4404292;32;97040;-84
2022/01/12 04:49:59;;;;;;;16.02;6.95;;;;;;;-2.92;57.55;101577.22;4418702;32;33223;-84
2022/01/12 04:52:28;;;;;;;21.50;8.82;;;;;;;-2.88;57.52;101581.69;4418608;32;33664;-84
2022/01/12 04:54:56;;;;;;;16.62;8.30;;;;;;;-2.69;56.83;101579.81;4405252;32;32301;-84
2022/01/12 04:57:24;;;;;;;23.80;9.88;;;;;;;-2.57;56.55;101580.25;4419345;32;34675;-84
2022/01/12 05:00:06;;;;;;;18.15;7.97;;;;;;;-2.67;56.82;101581.63;4405264;32;33484;-84
2022/01/12 05:13:52;;;;;;;25.58;10.68;;;;;;;-3.06;57.53;101593.00;4405574;32;34006;-82
2022/01/12 05:16:21;;;;;;;20.95;8.40;;;;;;;-3.13;57.71;101592.75;4418401;32;34160;-82
2022/01/12 05:18:51;;;;;;;19.62;8.70;;;;;;;-3.01;57.26;101594.06;4418336;32;33559;-82
2022/01/12 05:21:20;;;;;;;20.20;8.82;;;;;;;-3.02;57.04;101594.88;4402612;32;33675;-84
2022/01/12 05:23:49;;;;;;;21.02;9.10;;;;;;;-3.46;58.76;101600.00;4401614;32;33221;-84
2022/01/12 05:26:17;;;;;;;26.65;9.88;;;;;;;-3.23;58.03;101597.47;4404569;32;31862;-84
2022/01/12 05:28:45;;;;;;;22.30;9.38;;;;;;;-3.10;57.59;101600.63;4402495;32;33477;-83
2022/01/12 05:31:13;;;;;;;25.02;11.00;;;;;;;-3.23;58.47;101600.97;4400306;32;33906;-84
2022/01/12 05:33:47;;;;;;;24.05;10.88;;;;;;;-3.04;58.02;101605.12;4414593;32;33718;-84
2022/01/12 05:36:17;;;;;;;21.00;9.80;;;;;;;-3.08;58.52;101612.75;4415338;32;33496;-83
2022/01/12 05:38:47;;;;;;;24.42;9.85;;;;;;;-3.24;58.89;101604.34;4415644;32;32822;-83
2022/01/12 05:41:15;;;;;;;27.37;10.65;;;;;;;-3.24;58.67;101606.03;4402428;32;33989;-83
2022/01/12 05:43:45;;;;;;;19.25;9.48;;;;;;;-3.22;58.40;101596.69;4412909;32;34283;-82
2022/01/12 05:46:15;;;;;;;24.65;11.35;;;;;;;-3.03;57.58;101596.59;4402292;32;34002;-83
2022/01/12 05:51:32;;;;;;;23.58;9.82;;;;;;;-3.07;57.08;101596.41;4413157;32;33572;-83
2022/01/12 05:54:06;;;;;;;31.23;11.52;;;;;;;-3.12;57.82;101596.22;4414996;32;33975;-82
2022/01/12 05:56:44;;;;;;;21.83;9.88;;;;;;;-2.90;57.13;101611.75;4401712;32;33469;-84
2022/01/12 05:59:12;;;;;;;25.60;10.88;;;;;;;-3.07;57.75;101601.56;4412260;32;35218;-83
2022/01/12 06:01:39;;;;;;;29.87;10.90;;;;;;;-3.24;58.01;101611.22;4413756;32;34784;-82
2022/01/12 06:04:07;;;;;;;25.30;10.57;;;;;;;-3.24;58.12;101608.62;4401331;32;33140;-82
2022/01/12 06:06:35;;;;;;;20.37;9.70;;;;;;;-3.07;57.34;101611.91;4396831;32;33829;-83
2022/01/12 06:09:03;;;;;;;26.52;9.75;;;;;;;-2.99;57.06;101615.66;4418272;32;33371;-83
2022/01/12 06:11:31;;;;;;;19.23;8.93;;;;;;;-3.13;57.51;101622.88;4414488;32;32164;-83
2022/01/12 06:13:59;;;;;;;19.92;10.25;;;;;;;-3.28;57.88;101630.84;4413679;32;33232;-83
2022/01/12 06:16:28;;;;;;;19.50;9.45;;;;;;;-3.22;57.60;101627.69;4403858;32;32582;-83
2022/01/12 06:18:56;;;;;;;20.77;9.43;;;;;;;-3.31;58.59;101635.03;4414877;32;33243;-83
2022/01/12 06:21:25;;;;;;;28.08;11.90;;;;;;;-3.21;58.83;101644.94;4404644;32;32933;-83
2022/01/12 06:23:53;;;;;;;21.90;10.32;;;;;;;-3.11;58.47;101645.38;4416028;32;32148;-82
2022/01/12 06:26:24;;;;;;;24.37;10.25;;;;;;;-3.07;58.42;101648.09;4402684;32;34191;-83
2022/01/12 06:31:42;;;;;;;21.05;10.02;;;;;;;-3.28;57.94;101641.19;4412269;32;34663;-86
2022/01/12 06:34:10;;;;;;;20.88;9.02;;;;;;;-3.39;58.32;101650.19;4390662;32;32696;-86
2022/01/12 06:36:38;;;;;;;17.58;8.82;;;;;;;-3.33;58.02;101652.16;4401094;32;32097;-88
2022/01/12 06:39:09;;;;;;;18.77;8.43;;;;;;;-3.12;57.76;101655.66;4419487;32;33228;-88
2022/01/12 06:41:39;;;;;;;17.62;7.97;;;;;;;-3.12;57.62;101650.47;4414411;32;32242;-88
2022/01/12 06:44:07;;;;;;;18.98;8.70;;;;;;;-3.12;57.54;101650.47;4394714;32;30832;-88
2022/01/12 06:46:36;;;;;;;17.48;8.18;;;;;;;-3.03;57.75;101656.03;4417011;32;33351;-88
2022/01/12 06:49:04;;;;;;;17.65;7.93;;;;;;;-3.12;58.34;101658.22;4391597;32;33005;-88
2022/01/12 06:51:32;;;;;;;19.67;9.00;;;;;;;-3.03;58.05;101668.06;4422565;32;32567;-88
2022/01/12 06:54:01;;;;;;;24.08;10.75;;;;;;;-3.02;58.01;101665.53;4392385;32;33220;-88
2022/01/12 06:56:28;;;;;;;27.52;10.82;;;;;;;-2.87;57.74;101666.16;4405427;32;34311;-88
2022/01/12 06:58:56;;;;;;;22.42;8.77;;;;;;;-3.01;58.12;101669.88;4382216;32;32894;-89
2022/01/12 07:01:25;;;;;;;22.55;10.57;;;;;;;-2.98;58.12;101670.03;4393149;32;34068;-88
2022/01/12 07:03:53;;;;;;;23.20;9.10;;;;;;;-3.05;58.52;101670.56;4419732;32;34555;-88
2022/01/12 07:06:22;;;;;;;17.27;8.18;;;;;;;-2.75;57.82;101677.81;4406649;32;32573;-88
2022/01/12 07:08:49;;;;;;;23.20;7.80;;;;;;;-3.11;58.63;101670.31;4419373;32;33517;-88
2022/01/12 07:11:18;;;;;;;17.60;8.45;;;;;;;-2.87;58.51;101671.31;4396198;32;33096;-88
2022/01/12 07:13:48;;;;;;;22.73;9.05;;;;;;;-2.74;58.24;101674.41;4403817;32;32716;-88
2022/01/12 07:16:18;;;;;;;20.65;9.48;;;;;;;-2.85;58.74;101682.62;4406699;32;32665;-88
2022/01/12 07:18:46;;;;;;;22.58;9.82;;;;;;;-2.79;58.90;101687.16;4395554;32;33634;-88
2022/01/12 07:21:14;;;;;;;26.23;9.30;;;;;;;-2.57;58.18;101683.72;4403901;32;34661;-87
2022/01/12 07:23:41;;;;;;;20.77;9.77;;;;;;;-2.69;58.52;101696.16;4418363;32;32964;-87
2022/01/12 07:26:10;;;;;;;23.27;9.63;;;;;;;-2.65;58.32;101696.34;4404801;32;32715;-87
2022/01/12 07:28:38;;;;;;;23.52;10.48;;;;;;;-2.64;58.61;101705.88;4410653;32;33898;-90
2022/01/12 07:31:08;;;;;;;25.20;11.52;;;;;;;-2.55;58.50;101705.38;4391608;32;34743;-90
2022/01/12 07:33:36;;;;;;;23.40;9.45;;;;;;;-2.45;58.12;101699.72;4403708;32;33559;-91
2022/01/12 07:36:05;;;;;;;23.45;10.02;;;;;;;-2.38;57.82;101706.00;4392914;32;33306;-92
2022/01/12 07:38:34;;;;;;;24.65;10.75;;;;;;;-2.32;58.13;101716.62;4395580;32;33980;-91
2022/01/12 07:41:37;;;;;;;18.00;7.22;;;;;;;-2.46;58.68;101715.19;4366316;32;32870;-86
2022/01/12 07:44:05;;;;;;;19.75;9.00;;;;;;;-2.05;58.13;101714.19;4356236;32;33950;-85
2022/01/12 07:46:33;;;;;;;32.67;11.25;;;;;;;-2.00;58.06;101709.19;4369227;32;32957;-85
2022/01/12 07:49:00;;;;;;;28.48;11.27;;;;;;;-1.43;57.00;101701.78;4354489;32;33101;-85
2022/01/12 07:51:28;;;;;;;21.85;8.90;;;;;;;-1.67;57.52;101709.56;4358448;32;34284;-85
2022/01/12 07:53:56;;;;;;;24.02;10.77;;;;;;;-1.22;56.53;101717.22;4355711;32;33854;-85
2022/01/12 07:56:24;;;;;;;21.67;10.13;;;;;;;-1.39;56.83;101717.50;4364455;32;31209;-85
2022/01/12 07:58:52;;;;;;;19.40;8.52;;;;;;;-1.52;57.47;101723.06;4367870;32;34099;-85
2022/01/12 08:01:23;;;;;;;19.98;8.02;;;;;;;-1.51;57.37;101732.63;4370293;32;34094;-84
2022/01/12 08:03:52;;;;;;;24.15;8.43;;;;;;;-1.37;57.15;101728.81;4353039;32;33829;-84
2022/01/12 08:06:20;;;;;;;22.77;7.87;;;;;;;-1.32;56.99;101729.84;4377066;32;34096;-84
2022/01/12 08:08:48;;;;;;;16.00;8.90;;;;;;;-1.07;56.19;101733.31;4369930;32;33467;-85
2022/01/12 08:11:16;;;;;;;17.77;8.30;;;;;;;-1.03;55.87;101730.00;4343923;32;33225;-84
2022/01/12 08:13:45;;;;;;;18.35;8.18;;;;;;;-0.91;55.60;101725.19;4355470;32;34205;-84
2022/01/12 08:16:13;;;;;;;16.98;8.13;;;;;;;-0.99;55.96;101724.09;4366807;32;33083;-84
2022/01/12 08:18:41;;;;;;;15.30;8.00;;;;;;;-0.69;55.53;101723.34;4366702;32;34355;-84
2022/01/12 08:21:09;;;;;;;17.58;7.20;;;;;;;-0.42;54.45;101716.44;4357648;32;30687;-84
2022/01/12 08:23:37;;;;;;;18.42;7.43;;;;;;;-0.48;54.67;101713.62;4352905;32;32503;-84
2022/01/12 08:26:07;;;;;;;16.20;7.90;;;;;;;-0.24;54.21;101720.44;4358513;32;32747;-84
2022/01/12 08:28:34;;;;;;;14.65;6.75;;;;;;;-0.17;53.52;101719.78;4366247;32;31748;-85
2022/01/12 08:31:02;;;;;;;20.15;8.25;;;;;;;-0.40;53.72;101732.94;4376870;32;35469;-85
2022/01/12 08:33:32;;;;;;;15.07;7.07;;;;;;;-0.09;53.35;101734.78;4358242;32;32534;-85
2022/01/12 08:35:59;;;;;;;17.37;6.95;;;;;;;0.15;52.62;101739.84;4376728;32;33519;-84
2022/01/12 08:38:27;;;;;;;16.35;7.57;;;;;;;0.13;52.90;101745.81;4355993;32;33152;-84
2022/01/12 08:40:55;;;;;;;18.10;7.37;;;;;;;0.20;52.80;101748.63;4364943;32;34029;-84
2022/01/12 08:43:23;;;;;;;15.85;6.80;;;;;;;0.14;52.84;101753.66;4354447;32;33544;-84
2022/01/12 08:45:53;;;;;;;23.20;7.65;;;;;;;-0.34;54.11;101751.28;4366028;32;33755;-84
2022/01/12 08:48:22;;;;;;;13.93;7.55;;;;;;;0.04;52.83;101743.81;4354860;32;32155;-84
2022/01/12 08:50:50;;;;;;;15.80;7.03;;;;;;;-0.06;53.32;101749.56;4349179;32;33529;-84
2022/01/12 08:53:18;;;;;;;15.48;6.97;;;;;;;0.08;52.98;101743.06;4368243;32;32974;-85
2022/01/12 08:55:46;;;;;;;15.88;7.53;;;;;;;0.64;51.47;101733.44;4355602;32;33463;-83
2022/01/12 08:58:14;;;;;;;24.67;7.90;;;;;;;0.70;51.54;101743.97;4367732;32;33703;-84
2022/01/12 09:00:41;;;;;;;17.35;7.35;;;;;;;0.82;50.88;101740.84;4366048;32;34845;-84
2022/01/12 09:03:10;;;;;;;15.50;6.75;;;;;;;0.59;51.33;101742.81;4365002;32;33501;-84
2022/01/12 09:05:38;;;;;;;20.17;8.10;;;;;;;0.70;51.32;101741.38;4363346;32;32235;-84
2022/01/12 09:08:07;;;;;;;17.70;7.87;;;;;;;0.63;51.29;101744.66;4364877;32;34008;-84
2022/01/12 09:10:35;;;;;;;18.23;7.80;;;;;;;0.92;50.84;101736.78;4366894;32;33205;-84
2022/01/12 09:13:03;;;;;;;23.00;8.60;;;;;;;1.19;50.36;101731.41;4367939;32;33740;-84
2022/01/12 09:15:30;;;;;;;12.65;6.70;;;;;;;1.22;50.43;101719.34;4365070;32;31974;-84
2022/01/12 09:17:58;;;;;;;18.27;7.97;;;;;;;1.18;50.27;101727.91;4375393;32;34964;-84
2022/01/12 09:20:28;;;;;;;17.10;7.62;;;;;;;1.07;50.52;101731.97;4336864;32;31878;-84
2022/01/12 09:22:56;;;;;;;15.45;8.15;;;;;;;1.55;49.41;101728.81;4369056;32;34821;-84
2022/01/12 09:25:25;;;;;;;16.92;7.37;;;;;;;1.55;49.35;101726.22;4354152;32;31214;-83
2022/01/12 09:27:54;;;;;;;16.05;7.85;;;;;;;2.07;47.98;101722.19;4365519;32;35731;-84
2022/01/12 09:30:23;;;;;;;20.60;8.40;;;;;;;2.12;47.85;101722.28;4355207;32;34693;-84
2022/01/12 09:32:50;;;;;;;15.77;7.50;;;;;;;2.07;47.91;101729.13;4362262;32;30719;-83
2022/01/12 09:35:21;;;;;;;16.30;7.45;;;;;;;2.00;48.45;101723.81;4365299;32;32335;-84
2022/01/12 09:37:49;;;;;;;19.08;7.50;;;;;;;1.99;48.98;101731.56;4349097;32;33484;-83
2022/01/12 09:40:17;;;;;;;15.90;7.80;;;;;;;1.98;48.69;101733.28;4367932;32;34851;-83
2022/01/12 09:42:47;;;;;;;17.95;8.35;;;;;;;2.17;48.53;101713.72;4365235;32;32901;-83
2022/01/12 09:45:17;;;;;;;18.37;7.50;;;;;;;2.48;47.89;101719.59;4356694;32;31798;-84
2022/01/12 09:47:48;;;;;;;15.48;6.95;;;;;;;2.36;47.18;101725.41;4378829;32;33787;-83
2022/01/12 09:50:18;;;;;;;18.52;7.65;;;;;;;2.49;46.21;101726.56;4353930;32;33565;-83
2022/01/12 09:52:46;;;;;;;19.40;7.45;;;;;;;2.54;46.82;101728.41;4362904;32;33237;-84
2022/01/12 09:55:13;;;;;;;20.77;8.18;;;;;;;2.77;46.87;101733.19;4339926;32;32547;-83
2022/01/12 09:57:41;;;;;;;19.33;7.60;;;;;;;2.95;46.37;101724.84;4376730;32;33855;-83
2022/01/12 10:00:11;;;;;;;21.52;8.10;;;;;;;3.28;45.62;101722.81;4351774;32;33414;-83
2022/01/12 10:02:41;;;;;;;17.98;7.22;;;;;;;3.37;44.92;101729.00;4351896;32;33487;-82
2022/01/12 10:05:10;;;;;;;15.70;6.80;;;;;;;3.22;45.95;101732.25;4364709;32;31282;-82
2022/01/12 10:07:37;;;;;;;14.48;7.00;;;;;;;3.13;44.64;101735.56;4367249;32;34012;-82
2022/01/12 10:10:14;;;;;;;15.93;6.95;;;;;;;3.13;44.74;101734.69;4364077;32;33394;-82
2022/01/12 10:12:54;;;;;;;20.05;8.50;;;;;;;3.04;45.03;101725.00;4375179;32;33467;-83
2022/01/12 10:15:21;;;;;;;18.20;7.32;;;;;;;3.10;44.90;101711.16;4366616;32;33941;-82
2022/01/12 10:17:49;;;;;;;19.73;7.80;;;;;;;3.48;44.79;101722.25;4363391;32;33140;-82
2022/01/12 10:20:22;;;;;;;21.77;8.48;;;;;;;3.77;44.32;101726.19;4376317;32;33838;-83
2022/01/12 10:23:06;;;;;;;21.30;8.35;;;;;;;3.84;43.92;101721.91;4368392;32;31912;-83
2022/01/12 10:25:37;;;;;;;19.65;9.50;;;;;;;3.78;43.36;101716.59;4376636;32;33453;-82
2022/01/12 10:28:17;;;;;;;19.08;8.52;;;;;;;3.80;44.68;101718.41;4364454;32;34702;-83
2022/01/12 10:30:54;;;;;;;17.77;8.82;;;;;;;3.90;43.28;101715.94;4369342;32;33520;-83
2022/01/12 10:33:24;;;;;;;21.15;8.45;;;;;;;4.14;42.41;101712.75;4368121;32;33057;-83
2022/01/12 10:35:56;;;;;;;20.70;8.73;;;;;;;4.12;42.44;101715.34;4360320;32;32952;-83
2022/01/12 10:38:25;;;;;;;17.05;7.18;;;;;;;3.70;43.09;101718.22;4351621;32;32693;-83
2022/01/12 10:40:54;;;;;;;15.30;7.72;;;;;;;4.10;42.33;101711.84;4374542;32;32040;-83
2022/01/12 10:43:25;;;;;;;17.70;7.75;;;;;;;4.48;40.85;101708.81;4366539;32;32884;-83
2022/01/12 10:45:53;;;;;;;21.75;8.27;;;;;;;4.21;41.33;101710.22;4375451;32;32795;-83
2022/01/12 10:48:21;;;;;;;24.75;8.85;;;;;;;4.52;40.66;101702.78;4353130;32;33685;-83
2022/01/12 10:50:53;;;;;;;13.25;7.03;;;;;;;4.64;40.32;101700.28;4374021;32;34033;-83
2022/01/12 10:53:43;;;;;;;16.20;7.97;;;;;;;4.63;40.29;101699.41;4367756;32;34526;-86
2022/01/12 10:56:13;;;;;;;18.20;7.28;;;;;;;4.39;41.33;101708.72;4362550;32;33634;-86
2022/01/12 10:58:47;;;;;;;17.80;8.70;;;;;;;4.66;40.23;101702.94;4365056;32;33222;-86
2022/01/12 11:01:19;;;;;;;19.40;8.10;;;;;;;4.53;41.20;101707.13;4357152;32;33474;-86
2022/01/12 11:03:48;;;;;;;21.85;9.55;;;;;;;4.88;39.87;101710.12;4383010;32;34879;-86
2022/01/12 11:06:16;;;;;;;20.12;8.98;;;;;;;4.44;42.31;101699.19;4369367;32;32935;-86
2022/01/12 11:08:49;;;;;;;19.80;8.73;;;;;;;4.80;39.62;101696.97;4362408;32;33241;-86
2022/01/12 11:11:19;;;;;;;16.75;8.85;;;;;;;4.54;39.87;101699.31;4377043;32;33578;-86
2022/01/12 11:13:48;;;;;;;18.95;7.93;;;;;;;4.60;40.44;101693.25;4354887;32;33515;-86
2022/01/12 11:16:20;;;;;;;17.00;7.22;;;;;;;4.91;38.79;101702.31;4366167;32;32721;-86
2022/01/12 11:18:49;;;;;;;14.73;7.75;;;;;;;4.66;39.36;101703.81;4353158;32;34152;-86
2022/01/12 11:21:49;;;;;;;17.77;8.23;;;;;;;4.84;38.63;101703.09;4357488;32;34351;-86
2022/01/12 11:24:18;;;;;;;19.37;8.18;;;;;;;4.73;39.13;101708.22;4362281;32;33066;-86
2022/01/12 11:26:52;;;;;;;15.98;7.68;;;;;;;5.03;38.64;101710.31;4360108;32;32958;-86
2022/01/12 11:29:28;;;;;;;23.92;8.77;;;;;;;5.03;39.01;101701.53;4369969;32;33773;-86
2022/01/12 11:32:11;;;;;;;17.95;8.20;;;;;;;4.78;40.04;101698.69;4353415;32;33635;-86
2022/01/12 11:34:41;;;;;;;14.80;7.82;;;;;;;5.02;39.92;101702.41;4349789;32;34667;-87
2022/01/12 11:37:16;;;;;;;16.65;8.00;;;;;;;5.04;38.57;101700.69;4368466;32;34085;-86
2022/01/12 11:39:44;;;;;;;17.73;7.90;;;;;;;4.31;39.85;101701.63;4369282;32;33226;-87
2022/01/12 11:42:12;;;;;;;18.85;8.32;;;;;;;4.61;39.59;101695.03;4342156;32;32514;-86
2022/01/12 11:44:40;;;;;;;16.25;8.57;;;;;;;4.86;38.62;101691.78;4360623;32;33520;-86
2022/01/12 11:47:13;;;;;;;19.23;7.65;;;;;;;5.11;38.29;101692.91;4365684;32;32411;-87
2022/01/12 11:49:52;;;;;;;23.73;10.38;;;;;;;4.86;39.75;101683.94;4351182;32;33657;-86
2022/01/12 11:52:26;;;;;;;24.70;9.38;;;;;;;5.06;39.30;101689.38;4367581;32;33127;-87
2022/01/12 11:55:13;;;;;;;20.30;9.95;;;;;;;4.91;39.91;101688.34;4377046;32;33637;-87
2022/01/12 11:57:47;;;;;;;19.17;9.52;;;;;;;4.86;40.49;101677.84;4344928;32;34268;-86
2022/01/12 12:00:23;;;;;;;20.27;9.82;;;;;;;4.54;41.32;101677.50;4367764;32;32220;-86
2022/01/12 12:02:52;;;;;;;32.00;9.70;;;;;;;4.22;41.72;101675.38;4353882;32;33080;-87
2022/01/12 12:05:23;;;;;;;25.70;10.98;;;;;;;4.32;42.76;101682.50;4366041;32;34573;-87
2022/01/12 12:08:03;;;;;;;28.23;9.75;;;;;;;4.59;41.69;101678.41;4363426;32;33344;-87
2022/01/12 12:10:37;;;;;;;20.83;10.05;;;;;;;4.17;41.76;101684.91;4359664;32;32485;-87
2022/01/12 12:13:06;;;;;;;27.58;10.15;;;;;;;4.09;43.38;101683.94;4369849;32;32988;-86
2022/01/12 12:15:34;;;;;;;27.00;12.35;;;;;;;4.20;42.27;101679.72;4366789;32;32705;-86
2022/01/12 12:18:04;;;;;;;21.98;10.40;;;;;;;4.52;42.08;101668.78;4349156;32;32217;-86
2022/01/12 12:20:35;;;;;;;22.02;11.68;;;;;;;4.76;41.35;101673.38;4369951;32;32063;-86
2022/01/12 12:23:02;;;;;;;24.02;10.85;;;;;;;4.47;42.44;101679.19;4377438;32;36690;-86
2022/01/12 12:25:32;;;;;;;22.23;10.82;;;;;;;4.37;42.64;101679.94;4378154;32;32730;-86
2022/01/12 12:28:03;;;;;;;22.77;9.88;;;;;;;4.43;42.09;101676.50;4359266;32;32466;-86
2022/01/12 12:30:33;;;;;;;20.75;10.48;;;;;;;4.61;40.83;101671.50;4356952;32;33763;-86
2022/01/12 12:33:07;;;;;;;24.12;10.07;;;;;;;4.70;41.07;101678.53;4372766;32;34601;-86
2022/01/12 12:35:36;;;;;;;26.55;9.95;;;;;;;4.14;41.85;101677.03;4370575;32;33394;-86
2022/01/12 12:38:05;;;;;;;26.77;10.52;;;;;;;4.19;41.95;101682.31;4368673;32;32798;-86
2022/01/12 12:40:42;;;;;;;24.67;10.63;;;;;;;4.08;42.71;101692.62;4370050;32;33108;-86
2022/01/12 12:43:21;;;;;;;20.83;10.43;;;;;;;4.38;41.30;101694.75;4368718;32;33365;-86
2022/01/12 12:46:00;;;;;;;26.37;11.57;;;;;;;4.60;40.60;101683.69;4364673;32;34277;-86
2022/01/12 12:48:30;;;;;;;26.23;11.50;;;;;;;4.31;41.87;101696.41;4370046;32;34788;-86
2022/01/12 12:51:00;;;;;;;25.52;10.57;;;;;;;4.53;41.02;101691.44;4375732;32;33799;-86
2022/01/12 12:53:33;;;;;;;22.77;10.77;;;;;;;4.70;40.40;101675.91;4368815;32;33493;-86
2022/01/12 12:56:02;;;;;;;22.50;10.75;;;;;;;4.89;39.20;101672.66;4376134;32;33780;-86
2022/01/12 12:58:33;;;;;;;23.85;10.18;;;;;;;4.58;39.99;101677.53;4384404;32;34213;-86
2022/01/12 13:01:11;;;;;;;19.77;10.15;;;;;;;4.44;40.54;101678.25;4369162;32;34532;-87
2022/01/12 13:03:46;;;;;;;20.55;10.98;;;;;;;4.54;40.53;101677.50;4359086;32;32732;-86
2022/01/12 13:06:30;;;;;;;25.08;11.68;;;;;;;4.66;40.28;101672.41;4376835;32;34127;-87
2022/01/12 13:09:04;;;;;;;23.23;9.70;;;;;;;4.29;41.53;101672.00;4359904;32;32953;-86
2022/01/12 13:11:37;;;;;;;26.42;10.13;;;;;;;3.94;42.39;101673.25;4356285;32;33812;-86
2022/01/12 13:14:08;;;;;;;21.65;8.93;;;;;;;4.08;41.62;101672.62;4356971;32;33538;-86
2022/01/12 13:16:44;;;;;;;20.12;10.15;;;;;;;4.27;40.75;101681.56;4363957;32;34561;-86
2022/01/12 13:19:23;;;;;;;18.45;9.63;;;;;;;4.32;40.52;101682.50;4382288;32;33834;-86
2022/01/12 13:21:51;;;;;;;20.23;9.77;;;;;;;4.17;41.18;101681.41;4353524;32;32338;-87
2022/01/12 13:24:18;;;;;;;19.60;8.52;;;;;;;4.15;41.01;101683.12;4364839;32;33261;-87